sensor_id;sensor_type;location;lat;lon;timestamp;temperature;humidity
74617;DHT22;63123;50.906;4.198;2022-09-23T00:00:41;20.80;54.10
74617;DHT22;63123;50.906;4.198;2022-09-23T00:03:06;20.80;54.40
74617;DHT22;63123;50.906;4.198;2022-09-23T00:05:32;20.80;54.20
74617;DHT22;63123;50.906;4.198;2022-09-23T00:07:59;20.70;54.30
74617;DHT22;63123;50.906;4.198;2022-09-23T00:10:26;20.70;54.40
74617;DHT22;63123;50.906;4.198;2022-09-23T00:12:54;20.80;54.20
74617;DHT22;63123;50.906;4.198;2022-09-23T00:15:20;20.80;54.40
74617;DHT22;63123;50.906;4.198;2022-09-23T00:17:46;20.80;54.40
74617;DHT22;63123;50.906;4.198;2022-09-23T00:20:12;20.80;54.10
74617;DHT22;63123;50.906;4.198;2022-09-23T00:22:39;20.70;54.10
74617;DHT22;63123;50.906;4.198;2022-09-23T00:25:06;20.80;54.10
74617;DHT22;63123;50.906;4.198;2022-09-23T00:27:33;20.70;54.20
74617;DHT22;63123;50.906;4.198;2022-09-23T00:29:59;20.70;54.20
74617;DHT22;63123;50.906;4.198;2022-09-23T00:32:25;20.80;54.20
74617;DHT22;63123;50.906;4.198;2022-09-23T00:34:50;20.80;54.30
74617;DHT22;63123;50.906;4.198;2022-09-23T00:37:17;20.80;54.30
74617;DHT22;63123;50.906;4.198;2022-09-23T00:39:43;20.80;54.20
74617;DHT22;63123;50.906;4.198;2022-09-23T00:42:15;20.80;54.60
74617;DHT22;63123;50.906;4.198;2022-09-23T00:44:51;20.70;54.30
74617;DHT22;63123;50.906;4.198;2022-09-23T00:47:39;20.80;54.20
74617;DHT22;63123;50.906;4.198;2022-09-23T00:50:09;20.70;54.30
74617;DHT22;63123;50.906;4.198;2022-09-23T00:52:37;20.70;54.20
74617;DHT22;63123;50.906;4.198;2022-09-23T00:55:17;20.80;54.40
74617;DHT22;63123;50.906;4.198;2022-09-23T00:57:44;20.80;54.40
74617;DHT22;63123;50.906;4.198;2022-09-23T01:00:11;20.80;54.20
74617;DHT22;63123;50.906;4.198;2022-09-23T01:02:37;20.70;54.30
74617;DHT22;63123;50.906;4.198;2022-09-23T01:05:05;20.70;54.20
74617;DHT22;63123;50.906;4.198;2022-09-23T01:07:32;20.80;54.30
74617;DHT22;63123;50.906;4.198;2022-09-23T01:09:59;20.80;54.20
74617;DHT22;63123;50.906;4.198;2022-09-23T01:12:38;20.80;54.40
74617;DHT22;63123;50.906;4.198;2022-09-23T01:17:48;20.80;54.30
74617;DHT22;63123;50.906;4.198;2022-09-23T01:26:38;20.70;54.10
74617;DHT22;63123;50.906;4.198;2022-09-23T01:34:48;20.80;54.30
74617;DHT22;63123;50.906;4.198;2022-09-23T01:40:02;20.70;54.20
74617;DHT22;63123;50.906;4.198;2022-09-23T01:42:50;20.80;54.20
74617;DHT22;63123;50.906;4.198;2022-09-23T01:46:05;20.80;54.40
74617;DHT22;63123;50.906;4.198;2022-09-23T01:48:21;20.80;54.10
74617;DHT22;63123;50.906;4.198;2022-09-23T01:51:07;20.80;54.30
74617;DHT22;63123;50.906;4.198;2022-09-23T01:56:38;20.70;54.30
74617;DHT22;63123;50.906;4.198;2022-09-23T02:01:42;20.80;54.10
74617;DHT22;63123;50.906;4.198;2022-09-23T02:04:20;20.80;53.90
74617;DHT22;63123;50.906;4.198;2022-09-23T02:06:53;20.70;54.20
74617;DHT22;63123;50.906;4.198;2022-09-23T02:09:24;20.70;54.30
74617;DHT22;63123;50.906;4.198;2022-09-23T02:11:52;20.80;54.30
74617;DHT22;63123;50.906;4.198;2022-09-23T02:14:22;20.70;54.30
74617;DHT22;63123;50.906;4.198;2022-09-23T02:16:54;20.80;54.10
74617;DHT22;63123;50.906;4.198;2022-09-23T02:19:29;20.70;54.20
74617;DHT22;63123;50.906;4.198;2022-09-23T02:22:05;20.80;54.40
74617;DHT22;63123;50.906;4.198;2022-09-23T02:24:36;20.70;54.00
74617;DHT22;63123;50.906;4.198;2022-09-23T02:30:03;20.80;54.30
74617;DHT22;63123;50.906;4.198;2022-09-23T02:32:35;20.70;54.10
74617;DHT22;63123;50.906;4.198;2022-09-23T02:35:27;20.80;54.20
74617;DHT22;63123;50.906;4.198;2022-09-23T02:41:15;20.70;54.20
74617;DHT22;63123;50.906;4.198;2022-09-23T02:43:48;20.70;54.20
74617;DHT22;63123;50.906;4.198;2022-09-23T02:46:18;20.70;54.20
74617;DHT22;63123;50.906;4.198;2022-09-23T02:48:49;20.70;54.20
74617;DHT22;63123;50.906;4.198;2022-09-23T02:51:16;20.70;54.20
74617;DHT22;63123;50.906;4.198;2022-09-23T02:53:42;20.70;54.30
74617;DHT22;63123;50.906;4.198;2022-09-23T02:56:14;20.70;54.10
74617;DHT22;63123;50.906;4.198;2022-09-23T02:58:40;20.70;54.30
74617;DHT22;63123;50.906;4.198;2022-09-23T03:12:40;20.70;54.20
74617;DHT22;63123;50.906;4.198;2022-09-23T03:17:33;20.70;54.20
74617;DHT22;63123;50.906;4.198;2022-09-23T03:20:06;20.70;54.30
74617;DHT22;63123;50.906;4.198;2022-09-23T03:22:50;20.70;54.20
74617;DHT22;63123;50.906;4.198;2022-09-23T03:25:20;20.70;54.30
74617;DHT22;63123;50.906;4.198;2022-09-23T03:27:46;20.70;54.30
74617;DHT22;63123;50.906;4.198;2022-09-23T03:30:12;20.70;54.10
74617;DHT22;63123;50.906;4.198;2022-09-23T03:32:43;20.70;53.90
74617;DHT22;63123;50.906;4.198;2022-09-23T03:35:10;20.70;53.90
74617;DHT22;63123;50.906;4.198;2022-09-23T03:37:46;20.70;54.00
74617;DHT22;63123;50.906;4.198;2022-09-23T03:40:28;20.70;54.30
74617;DHT22;63123;50.906;4.198;2022-09-23T03:42:56;20.70;54.00
74617;DHT22;63123;50.906;4.198;2022-09-23T03:45:26;20.70;54.40
74617;DHT22;63123;50.906;4.198;2022-09-23T03:47:54;20.70;54.00
74617;DHT22;63123;50.906;4.198;2022-09-23T03:50:19;20.70;54.30
74617;DHT22;63123;50.906;4.198;2022-09-23T03:52:45;20.70;54.20
74617;DHT22;63123;50.906;4.198;2022-09-23T03:55:11;20.70;54.20
74617;DHT22;63123;50.906;4.198;2022-09-23T03:57:37;20.70;54.10
74617;DHT22;63123;50.906;4.198;2022-09-23T04:00:05;20.70;54.10
74617;DHT22;63123;50.906;4.198;2022-09-23T04:02:32;20.70;54.20
74617;DHT22;63123;50.906;4.198;2022-09-23T04:04:58;20.70;54.20
74617;DHT22;63123;50.906;4.198;2022-09-23T04:07:23;20.70;54.30
74617;DHT22;63123;50.906;4.198;2022-09-23T04:09:50;20.70;54.20
74617;DHT22;63123;50.906;4.198;2022-09-23T04:12:16;20.70;54.20
74617;DHT22;63123;50.906;4.198;2022-09-23T04:14:42;20.70;54.20
74617;DHT22;63123;50.906;4.198;2022-09-23T04:17:08;20.70;54.10
74617;DHT22;63123;50.906;4.198;2022-09-23T04:19:34;20.70;54.40
74617;DHT22;63123;50.906;4.198;2022-09-23T04:21:59;20.70;54.30
74617;DHT22;63123;50.906;4.198;2022-09-23T04:24:25;20.70;54.30
74617;DHT22;63123;50.906;4.198;2022-09-23T04:26:52;20.70;54.20
74617;DHT22;63123;50.906;4.198;2022-09-23T04:29:19;20.70;54.40
74617;DHT22;63123;50.906;4.198;2022-09-23T04:31:44;20.70;54.20
74617;DHT22;63123;50.906;4.198;2022-09-23T04:34:10;20.70;54.20
74617;DHT22;63123;50.906;4.198;2022-09-23T04:36:36;20.70;54.20
74617;DHT22;63123;50.906;4.198;2022-09-23T04:39:02;20.70;54.00
74617;DHT22;63123;50.906;4.198;2022-09-23T04:41:27;20.70;54.20
74617;DHT22;63123;50.906;4.198;2022-09-23T04:43:54;20.70;54.30
74617;DHT22;63123;50.906;4.198;2022-09-23T04:46:21;20.70;54.20
74617;DHT22;63123;50.906;4.198;2022-09-23T04:48:47;20.70;54.30
74617;DHT22;63123;50.906;4.198;2022-09-23T04:51:16;20.70;54.00
74617;DHT22;63123;50.906;4.198;2022-09-23T04:53:44;20.70;54.00
74617;DHT22;63123;50.906;4.198;2022-09-23T04:56:12;20.70;54.30
74617;DHT22;63123;50.906;4.198;2022-09-23T04:58:39;20.70;54.00
74617;DHT22;63123;50.906;4.198;2022-09-23T05:01:13;20.70;54.10
74617;DHT22;63123;50.906;4.198;2022-09-23T05:03:39;20.70;54.30
74617;DHT22;63123;50.906;4.198;2022-09-23T05:06:06;20.70;53.90
74617;DHT22;63123;50.906;4.198;2022-09-23T05:08:32;20.70;54.10
74617;DHT22;63123;50.906;4.198;2022-09-23T05:11:00;20.70;54.10
74617;DHT22;63123;50.906;4.198;2022-09-23T05:13:26;20.70;54.10
74617;DHT22;63123;50.906;4.198;2022-09-23T05:15:59;20.70;54.20
74617;DHT22;63123;50.906;4.198;2022-09-23T05:18:35;20.70;53.90
74617;DHT22;63123;50.906;4.198;2022-09-23T05:21:02;20.70;54.10
74617;DHT22;63123;50.906;4.198;2022-09-23T05:23:29;20.70;54.20
74617;DHT22;63123;50.906;4.198;2022-09-23T05:26:02;20.70;54.10
74617;DHT22;63123;50.906;4.198;2022-09-23T05:28:29;20.70;54.00
74617;DHT22;63123;50.906;4.198;2022-09-23T05:31:01;20.70;54.20
74617;DHT22;63123;50.906;4.198;2022-09-23T05:33:27;20.70;54.00
74617;DHT22;63123;50.906;4.198;2022-09-23T05:35:54;20.70;54.10
74617;DHT22;63123;50.906;4.198;2022-09-23T05:38:20;20.70;53.90
74617;DHT22;63123;50.906;4.198;2022-09-23T05:40:45;20.70;54.30
74617;DHT22;63123;50.906;4.198;2022-09-23T05:43:11;20.70;54.20
74617;DHT22;63123;50.906;4.198;2022-09-23T05:45:36;20.70;54.40
74617;DHT22;63123;50.906;4.198;2022-09-23T05:48:02;20.70;54.40
74617;DHT22;63123;50.906;4.198;2022-09-23T05:50:27;20.70;54.50
74617;DHT22;63123;50.906;4.198;2022-09-23T05:52:53;20.70;54.40
74617;DHT22;63123;50.906;4.198;2022-09-23T05:55:19;20.70;54.50
74617;DHT22;63123;50.906;4.198;2022-09-23T05:57:44;20.70;54.60
74617;DHT22;63123;50.906;4.198;2022-09-23T06:00:10;20.70;54.50
74617;DHT22;63123;50.906;4.198;2022-09-23T06:02:36;20.70;54.50
74617;DHT22;63123;50.906;4.198;2022-09-23T06:05:02;20.70;54.40
74617;DHT22;63123;50.906;4.198;2022-09-23T06:07:27;20.70;54.50
74617;DHT22;63123;50.906;4.198;2022-09-23T06:09:53;20.70;54.30
74617;DHT22;63123;50.906;4.198;2022-09-23T06:12:19;20.80;54.30
74617;DHT22;63123;50.906;4.198;2022-09-23T06:14:44;20.70;54.30
74617;DHT22;63123;50.906;4.198;2022-09-23T06:17:10;20.70;54.50
74617;DHT22;63123;50.906;4.198;2022-09-23T06:19:36;20.80;54.60
74617;DHT22;63123;50.906;4.198;2022-09-23T06:22:01;20.70;54.50
74617;DHT22;63123;50.906;4.198;2022-09-23T06:24:27;20.70;54.20
74617;DHT22;63123;50.906;4.198;2022-09-23T06:26:52;20.80;54.30
74617;DHT22;63123;50.906;4.198;2022-09-23T06:29:18;20.80;54.30
74617;DHT22;63123;50.906;4.198;2022-09-23T06:31:43;20.70;54.30
74617;DHT22;63123;50.906;4.198;2022-09-23T06:34:10;20.70;54.40
74617;DHT22;63123;50.906;4.198;2022-09-23T06:36:36;20.70;54.20
74617;DHT22;63123;50.906;4.198;2022-09-23T06:39:02;20.80;54.10
74617;DHT22;63123;50.906;4.198;2022-09-23T06:41:27;20.80;54.30
74617;DHT22;63123;50.906;4.198;2022-09-23T06:43:53;20.70;54.30
74617;DHT22;63123;50.906;4.198;2022-09-23T06:46:18;20.80;54.30
74617;DHT22;63123;50.906;4.198;2022-09-23T06:48:45;20.70;54.30
74617;DHT22;63123;50.906;4.198;2022-09-23T06:51:12;20.80;54.10
74617;DHT22;63123;50.906;4.198;2022-09-23T06:53:48;20.70;54.10
74617;DHT22;63123;50.906;4.198;2022-09-23T06:56:15;20.70;54.00
74617;DHT22;63123;50.906;4.198;2022-09-23T06:58:42;20.70;54.00
74617;DHT22;63123;50.906;4.198;2022-09-23T07:01:13;20.70;54.20
74617;DHT22;63123;50.906;4.198;2022-09-23T07:03:42;20.70;54.00
74617;DHT22;63123;50.906;4.198;2022-09-23T07:06:09;20.70;54.60
74617;DHT22;63123;50.906;4.198;2022-09-23T07:08:34;20.70;54.20
74617;DHT22;63123;50.906;4.198;2022-09-23T07:11:04;20.70;54.30
74617;DHT22;63123;50.906;4.198;2022-09-23T07:13:30;20.80;54.40
74617;DHT22;63123;50.906;4.198;2022-09-23T07:15:58;20.80;54.50
74617;DHT22;63123;50.906;4.198;2022-09-23T07:18:26;20.70;54.20
74617;DHT22;63123;50.906;4.198;2022-09-23T07:20:52;20.80;54.00
74617;DHT22;63123;50.906;4.198;2022-09-23T07:23:19;20.70;54.00
74617;DHT22;63123;50.906;4.198;2022-09-23T07:25:46;20.80;54.30
74617;DHT22;63123;50.906;4.198;2022-09-23T07:28:14;20.80;54.00
74617;DHT22;63123;50.906;4.198;2022-09-23T07:30:40;20.80;53.60
74617;DHT22;63123;50.906;4.198;2022-09-23T07:33:06;20.80;53.30
74617;DHT22;63123;50.906;4.198;2022-09-23T07:35:32;20.70;53.00
74617;DHT22;63123;50.906;4.198;2022-09-23T07:37:59;20.70;53.10
74617;DHT22;63123;50.906;4.198;2022-09-23T07:40:24;20.70;52.80
74617;DHT22;63123;50.906;4.198;2022-09-23T07:42:50;20.80;52.80
74617;DHT22;63123;50.906;4.198;2022-09-23T07:45:16;20.80;52.50
74617;DHT22;63123;50.906;4.198;2022-09-23T07:47:41;20.70;52.40
74617;DHT22;63123;50.906;4.198;2022-09-23T07:50:08;20.80;52.90
74617;DHT22;63123;50.906;4.198;2022-09-23T07:52:38;20.80;52.60
74617;DHT22;63123;50.906;4.198;2022-09-23T07:55:05;20.80;52.90
74617;DHT22;63123;50.906;4.198;2022-09-23T07:57:31;20.80;52.80
74617;DHT22;63123;50.906;4.198;2022-09-23T07:59:57;20.80;52.80
74617;DHT22;63123;50.906;4.198;2022-09-23T08:02:23;20.80;52.70
74617;DHT22;63123;50.906;4.198;2022-09-23T08:04:49;20.80;53.20
74617;DHT22;63123;50.906;4.198;2022-09-23T08:07:15;20.80;52.60
74617;DHT22;63123;50.906;4.198;2022-09-23T08:09:42;20.80;52.50
74617;DHT22;63123;50.906;4.198;2022-09-23T08:12:14;20.80;52.40
74617;DHT22;63123;50.906;4.198;2022-09-23T08:14:41;20.80;52.50
74617;DHT22;63123;50.906;4.198;2022-09-23T08:17:07;20.80;52.40
74617;DHT22;63123;50.906;4.198;2022-09-23T08:19:33;20.80;52.60
74617;DHT22;63123;50.906;4.198;2022-09-23T08:21:59;20.80;52.50
74617;DHT22;63123;50.906;4.198;2022-09-23T08:24:24;20.80;52.30
74617;DHT22;63123;50.906;4.198;2022-09-23T08:26:52;20.80;52.40
74617;DHT22;63123;50.906;4.198;2022-09-23T08:29:22;20.80;52.50
74617;DHT22;63123;50.906;4.198;2022-09-23T08:31:49;20.80;52.60
74617;DHT22;63123;50.906;4.198;2022-09-23T08:34:16;20.90;52.70
74617;DHT22;63123;50.906;4.198;2022-09-23T08:36:42;20.80;52.40
74617;DHT22;63123;50.906;4.198;2022-09-23T08:39:12;20.80;52.10
74617;DHT22;63123;50.906;4.198;2022-09-23T08:44:22;20.90;52.20
74617;DHT22;63123;50.906;4.198;2022-09-23T08:49:48;20.90;52.40
74617;DHT22;63123;50.906;4.198;2022-09-23T08:55:12;20.90;52.20
74617;DHT22;63123;50.906;4.198;2022-09-23T09:00:19;20.80;52.10
74617;DHT22;63123;50.906;4.198;2022-09-23T09:02:44;20.90;52.30
74617;DHT22;63123;50.906;4.198;2022-09-23T09:05:11;20.80;52.50
74617;DHT22;63123;50.906;4.198;2022-09-23T09:07:40;20.80;52.40
74617;DHT22;63123;50.906;4.198;2022-09-23T09:13:04;20.80;52.30
74617;DHT22;63123;50.906;4.198;2022-09-23T09:15:46;20.90;52.50
74617;DHT22;63123;50.906;4.198;2022-09-23T09:25:58;20.80;52.20
74617;DHT22;63123;50.906;4.198;2022-09-23T09:28:39;20.80;52.00
74617;DHT22;63123;50.906;4.198;2022-09-23T09:31:33;20.90;52.00
74617;DHT22;63123;50.906;4.198;2022-09-23T09:39:18;20.80;52.10
74617;DHT22;63123;50.906;4.198;2022-09-23T09:41:49;20.90;52.10
74617;DHT22;63123;50.906;4.198;2022-09-23T09:44:39;20.90;52.40
74617;DHT22;63123;50.906;4.198;2022-09-23T09:49:53;20.80;52.30
74617;DHT22;63123;50.906;4.198;2022-09-23T09:52:25;20.80;52.10
74617;DHT22;63123;50.906;4.198;2022-09-23T09:54:55;20.80;52.20
74617;DHT22;63123;50.906;4.198;2022-09-23T09:59:51;20.80;52.40
74617;DHT22;63123;50.906;4.198;2022-09-23T10:02:23;20.80;52.20
74617;DHT22;63123;50.906;4.198;2022-09-23T10:05:02;20.80;52.30
74617;DHT22;63123;50.906;4.198;2022-09-23T10:07:32;20.80;52.40
74617;DHT22;63123;50.906;4.198;2022-09-23T10:09:58;20.80;52.50
74617;DHT22;63123;50.906;4.198;2022-09-23T10:12:45;20.80;52.40
74617;DHT22;63123;50.906;4.198;2022-09-23T10:15:31;20.90;52.60
74617;DHT22;63123;50.906;4.198;2022-09-23T10:18:19;20.90;52.70
74617;DHT22;63123;50.906;4.198;2022-09-23T10:20:47;20.80;52.50
74617;DHT22;63123;50.906;4.198;2022-09-23T10:23:17;20.90;52.80
74617;DHT22;63123;50.906;4.198;2022-09-23T10:25:59;20.90;52.70
74617;DHT22;63123;50.906;4.198;2022-09-23T10:31:07;20.80;52.90
74617;DHT22;63123;50.906;4.198;2022-09-23T10:33:46;20.90;52.90
74617;DHT22;63123;50.906;4.198;2022-09-23T10:36:14;20.90;53.00
74617;DHT22;63123;50.906;4.198;2022-09-23T10:38:40;20.90;52.90
74617;DHT22;63123;50.906;4.198;2022-09-23T10:41:12;20.90;52.90
74617;DHT22;63123;50.906;4.198;2022-09-23T10:44:16;20.90;52.80
74617;DHT22;63123;50.906;4.198;2022-09-23T10:52:44;20.90;53.00
74617;DHT22;63123;50.906;4.198;2022-09-23T10:58:36;20.90;53.30
74617;DHT22;63123;50.906;4.198;2022-09-23T11:04:18;20.90;53.30
74617;DHT22;63123;50.906;4.198;2022-09-23T11:32:22;20.90;53.70
74617;DHT22;63123;50.906;4.198;2022-09-23T11:35:17;20.80;53.70
74617;DHT22;63123;50.906;4.198;2022-09-23T11:38:07;20.90;53.80
74617;DHT22;63123;50.906;4.198;2022-09-23T11:40:39;20.90;53.90
74617;DHT22;63123;50.906;4.198;2022-09-23T11:43:20;20.90;53.90
74617;DHT22;63123;50.906;4.198;2022-09-23T11:46:01;20.90;53.90
74617;DHT22;63123;50.906;4.198;2022-09-23T11:48:35;20.80;53.90
74617;DHT22;63123;50.906;4.198;2022-09-23T11:51:07;20.80;54.50
74617;DHT22;63123;50.906;4.198;2022-09-23T11:53:51;20.90;53.90
74617;DHT22;63123;50.906;4.198;2022-09-23T11:56:39;20.90;54.00
74617;DHT22;63123;50.906;4.198;2022-09-23T12:01:51;20.80;53.90
74617;DHT22;63123;50.906;4.198;2022-09-23T12:04:30;20.80;53.90
74617;DHT22;63123;50.906;4.198;2022-09-23T12:07:11;20.90;54.00
74617;DHT22;63123;50.906;4.198;2022-09-23T12:12:16;20.90;54.00
74617;DHT22;63123;50.906;4.198;2022-09-23T12:15:03;20.90;54.10
74617;DHT22;63123;50.906;4.198;2022-09-23T12:25:54;20.90;54.00
74617;DHT22;63123;50.906;4.198;2022-09-23T12:28:24;20.90;54.00
74617;DHT22;63123;50.906;4.198;2022-09-23T12:30:53;20.90;54.00
74617;DHT22;63123;50.906;4.198;2022-09-23T12:33:24;20.90;54.10
74617;DHT22;63123;50.906;4.198;2022-09-23T12:36:02;20.80;54.00
74617;DHT22;63123;50.906;4.198;2022-09-23T12:38:35;20.80;54.00
74617;DHT22;63123;50.906;4.198;2022-09-23T12:41:17;20.90;54.10
74617;DHT22;63123;50.906;4.198;2022-09-23T12:43:51;20.80;54.00
74617;DHT22;63123;50.906;4.198;2022-09-23T12:46:22;20.80;54.00
74617;DHT22;63123;50.906;4.198;2022-09-23T12:51:35;20.90;54.10
74617;DHT22;63123;50.906;4.198;2022-09-23T13:01:44;20.90;54.20
74617;DHT22;63123;50.906;4.198;2022-09-23T13:05:12;20.90;54.20
74617;DHT22;63123;50.906;4.198;2022-09-23T13:07:39;20.90;54.20
74617;DHT22;63123;50.906;4.198;2022-09-23T13:10:11;20.90;54.40
74617;DHT22;63123;50.906;4.198;2022-09-23T13:12:41;20.80;54.30
74617;DHT22;63123;50.906;4.198;2022-09-23T13:15:34;20.90;54.30
74617;DHT22;63123;50.906;4.198;2022-09-23T13:18:22;20.90;54.20
74617;DHT22;63123;50.906;4.198;2022-09-23T13:20:49;20.80;54.20
74617;DHT22;63123;50.906;4.198;2022-09-23T13:23:29;20.80;54.20
74617;DHT22;63123;50.906;4.198;2022-09-23T13:26:08;20.90;54.20
74617;DHT22;63123;50.906;4.198;2022-09-23T13:28:53;20.90;54.20
74617;DHT22;63123;50.906;4.198;2022-09-23T13:31:20;20.90;54.30
74617;DHT22;63123;50.906;4.198;2022-09-23T13:33:49;20.90;54.20
74617;DHT22;63123;50.906;4.198;2022-09-23T13:36:17;20.90;54.20
74617;DHT22;63123;50.906;4.198;2022-09-23T13:38:43;20.90;54.30
74617;DHT22;63123;50.906;4.198;2022-09-23T13:41:16;20.90;54.30
74617;DHT22;63123;50.906;4.198;2022-09-23T13:43:53;20.90;54.30
74617;DHT22;63123;50.906;4.198;2022-09-23T13:46:28;20.90;54.30
74617;DHT22;63123;50.906;4.198;2022-09-23T13:48:55;20.90;54.30
74617;DHT22;63123;50.906;4.198;2022-09-23T13:51:34;20.90;54.40
74617;DHT22;63123;50.906;4.198;2022-09-23T13:54:02;20.90;54.40
74617;DHT22;63123;50.906;4.198;2022-09-23T13:56:31;20.90;54.40
74617;DHT22;63123;50.906;4.198;2022-09-23T14:04:28;20.90;54.40
74617;DHT22;63123;50.906;4.198;2022-09-23T14:06:54;20.90;54.50
74617;DHT22;63123;50.906;4.198;2022-09-23T14:09:23;20.90;54.60
74617;DHT22;63123;50.906;4.198;2022-09-23T14:11:51;20.90;54.60
74617;DHT22;63123;50.906;4.198;2022-09-23T14:14:19;20.90;54.60
74617;DHT22;63123;50.906;4.198;2022-09-23T14:16:48;20.90;54.60
74617;DHT22;63123;50.906;4.198;2022-09-23T14:19:21;20.90;54.60
74617;DHT22;63123;50.906;4.198;2022-09-23T14:21:52;20.90;54.60
74617;DHT22;63123;50.906;4.198;2022-09-23T14:24:20;20.90;54.70
74617;DHT22;63123;50.906;4.198;2022-09-23T14:26:53;20.90;54.70
74617;DHT22;63123;50.906;4.198;2022-09-23T14:29:24;20.90;54.70
74617;DHT22;63123;50.906;4.198;2022-09-23T14:31:56;20.90;54.70
74617;DHT22;63123;50.906;4.198;2022-09-23T14:34:42;20.90;54.80
74617;DHT22;63123;50.906;4.198;2022-09-23T14:40:05;20.80;54.70
74617;DHT22;63123;50.906;4.198;2022-09-23T14:42:37;20.90;54.80
74617;DHT22;63123;50.906;4.198;2022-09-23T14:45:05;20.80;54.80
74617;DHT22;63123;50.906;4.198;2022-09-23T14:47:32;20.80;54.90
74617;DHT22;63123;50.906;4.198;2022-09-23T14:49:59;20.80;54.90
74617;DHT22;63123;50.906;4.198;2022-09-23T14:52:53;20.90;55.00
74617;DHT22;63123;50.906;4.198;2022-09-23T14:55:18;20.80;54.90
74617;DHT22;63123;50.906;4.198;2022-09-23T14:57:44;20.80;54.90
74617;DHT22;63123;50.906;4.198;2022-09-23T15:00:17;20.90;55.00
74617;DHT22;63123;50.906;4.198;2022-09-23T15:02:56;20.90;55.10
74617;DHT22;63123;50.906;4.198;2022-09-23T15:05:31;20.90;55.00
74617;DHT22;63123;50.906;4.198;2022-09-23T15:08:02;20.90;55.00
74617;DHT22;63123;50.906;4.198;2022-09-23T15:10:34;20.80;55.00
74617;DHT22;63123;50.906;4.198;2022-09-23T15:15:42;20.80;55.00
74617;DHT22;63123;50.906;4.198;2022-09-23T15:18:16;20.80;55.00
74617;DHT22;63123;50.906;4.198;2022-09-23T15:20:48;20.90;55.10
74617;DHT22;63123;50.906;4.198;2022-09-23T15:23:43;20.90;55.20
74617;DHT22;63123;50.906;4.198;2022-09-23T15:26:13;20.80;55.30
74617;DHT22;63123;50.906;4.198;2022-09-23T15:28:39;20.80;55.40
74617;DHT22;63123;50.906;4.198;2022-09-23T15:31:05;20.90;55.50
74617;DHT22;63123;50.906;4.198;2022-09-23T15:33:33;20.80;55.50
74617;DHT22;63123;50.906;4.198;2022-09-23T15:36:00;20.90;55.50
74617;DHT22;63123;50.906;4.198;2022-09-23T15:38:25;20.80;55.50
74617;DHT22;63123;50.906;4.198;2022-09-23T15:40:51;20.90;55.60
74617;DHT22;63123;50.906;4.198;2022-09-23T15:43:23;20.90;55.60
74617;DHT22;63123;50.906;4.198;2022-09-23T15:45:57;20.90;55.60
74617;DHT22;63123;50.906;4.198;2022-09-23T15:48:38;20.80;55.90
74617;DHT22;63123;50.906;4.198;2022-09-23T15:51:06;20.90;55.90
74617;DHT22;63123;50.906;4.198;2022-09-23T15:53:34;20.90;55.90
74617;DHT22;63123;50.906;4.198;2022-09-23T15:56:02;20.90;55.80
74617;DHT22;63123;50.906;4.198;2022-09-23T15:58:28;20.80;56.00
74617;DHT22;63123;50.906;4.198;2022-09-23T16:00:55;20.90;56.50
74617;DHT22;63123;50.906;4.198;2022-09-23T16:03:21;20.80;56.10
74617;DHT22;63123;50.906;4.198;2022-09-23T16:05:53;20.90;56.00
74617;DHT22;63123;50.906;4.198;2022-09-23T16:08:21;20.90;56.00
74617;DHT22;63123;50.906;4.198;2022-09-23T16:10:49;20.90;56.10
74617;DHT22;63123;50.906;4.198;2022-09-23T16:13:15;20.90;56.20
74617;DHT22;63123;50.906;4.198;2022-09-23T16:15:40;20.80;56.10
74617;DHT22;63123;50.906;4.198;2022-09-23T16:18:07;20.90;56.20
74617;DHT22;63123;50.906;4.198;2022-09-23T16:20:38;20.80;56.00
74617;DHT22;63123;50.906;4.198;2022-09-23T16:23:11;20.90;56.10
74617;DHT22;63123;50.906;4.198;2022-09-23T16:25:38;20.90;56.10
74617;DHT22;63123;50.906;4.198;2022-09-23T16:28:05;20.90;56.20
74617;DHT22;63123;50.906;4.198;2022-09-23T16:30:32;20.90;56.50
74617;DHT22;63123;50.906;4.198;2022-09-23T16:32:58;20.90;56.30
74617;DHT22;63123;50.906;4.198;2022-09-23T16:35:26;20.90;56.30
74617;DHT22;63123;50.906;4.198;2022-09-23T16:37:53;20.80;56.40
74617;DHT22;63123;50.906;4.198;2022-09-23T16:40:21;20.90;56.20
74617;DHT22;63123;50.906;4.198;2022-09-23T16:42:51;20.90;56.40
74617;DHT22;63123;50.906;4.198;2022-09-23T16:45:21;20.80;56.40
74617;DHT22;63123;50.906;4.198;2022-09-23T16:47:49;20.90;56.40
74617;DHT22;63123;50.906;4.198;2022-09-23T16:50:18;20.90;56.60
74617;DHT22;63123;50.906;4.198;2022-09-23T16:52:44;20.90;56.50
74617;DHT22;63123;50.906;4.198;2022-09-23T16:55:12;20.90;56.50
74617;DHT22;63123;50.906;4.198;2022-09-23T16:57:38;20.90;56.60
74617;DHT22;63123;50.906;4.198;2022-09-23T17:00:07;20.90;56.70
74617;DHT22;63123;50.906;4.198;2022-09-23T17:02:52;20.80;56.50
74617;DHT22;63123;50.906;4.198;2022-09-23T17:05:36;20.90;56.70
74617;DHT22;63123;50.906;4.198;2022-09-23T17:08:01;20.80;56.50
74617;DHT22;63123;50.906;4.198;2022-09-23T17:10:28;20.80;56.30
74617;DHT22;63123;50.906;4.198;2022-09-23T17:12:54;20.90;56.70
74617;DHT22;63123;50.906;4.198;2022-09-23T17:15:21;20.90;56.60
74617;DHT22;63123;50.906;4.198;2022-09-23T17:17:46;20.80;56.50
74617;DHT22;63123;50.906;4.198;2022-09-23T17:20:12;20.80;56.70
74617;DHT22;63123;50.906;4.198;2022-09-23T17:22:39;20.80;56.50
74617;DHT22;63123;50.906;4.198;2022-09-23T17:25:06;20.80;56.60
74617;DHT22;63123;50.906;4.198;2022-09-23T17:27:31;20.90;56.70
74617;DHT22;63123;50.906;4.198;2022-09-23T17:29:57;20.90;56.80
74617;DHT22;63123;50.906;4.198;2022-09-23T17:32:23;20.80;56.60
74617;DHT22;63123;50.906;4.198;2022-09-23T17:34:49;20.80;56.70
74617;DHT22;63123;50.906;4.198;2022-09-23T17:37:15;20.80;56.70
74617;DHT22;63123;50.906;4.198;2022-09-23T17:39:40;20.80;56.80
74617;DHT22;63123;50.906;4.198;2022-09-23T17:42:07;20.80;57.00
74617;DHT22;63123;50.906;4.198;2022-09-23T17:44:33;20.90;56.90
74617;DHT22;63123;50.906;4.198;2022-09-23T17:46:59;20.80;57.10
74617;DHT22;63123;50.906;4.198;2022-09-23T17:49:26;20.90;56.90
74617;DHT22;63123;50.906;4.198;2022-09-23T17:51:53;20.90;57.10
74617;DHT22;63123;50.906;4.198;2022-09-23T17:54:20;20.80;57.00
74617;DHT22;63123;50.906;4.198;2022-09-23T17:56:45;20.80;56.90
74617;DHT22;63123;50.906;4.198;2022-09-23T17:59:11;20.90;57.00
74617;DHT22;63123;50.906;4.198;2022-09-23T18:01:37;20.80;57.10
74617;DHT22;63123;50.906;4.198;2022-09-23T18:04:03;20.80;57.20
74617;DHT22;63123;50.906;4.198;2022-09-23T18:06:34;20.90;57.00
74617;DHT22;63123;50.906;4.198;2022-09-23T18:09:00;20.90;57.00
74617;DHT22;63123;50.906;4.198;2022-09-23T18:11:30;20.80;57.00
74617;DHT22;63123;50.906;4.198;2022-09-23T18:14:02;20.80;57.20
74617;DHT22;63123;50.906;4.198;2022-09-23T18:16:34;20.90;57.30
74617;DHT22;63123;50.906;4.198;2022-09-23T18:19:01;20.80;57.10